Time;durP1;ratioP1;P1;durP2;ratioP2;P2;SDS_P1;SDS_P2;PMS_P1;PMS_P2;Temp;Humidity;BMP_temperature;BMP_pressure;BME280_temperature;BME280_humidity;BME280_pressure;Samples;Min_cycle;Max_cycle;Signal;HPM_P1;HPM_P2
2023/05/02 09:23:13;;;;;;;11.13;3.20;;;11.70;94.70;;;;;;5073969;27;20546;-74
2023/05/02 09:25:40;;;;;;;7.38;2.90;;;11.90;94.40;;;;;;5069948;28;20201;-76
2023/05/02 09:28:07;;;;;;;6.47;3.53;;;12.30;93.60;;;;;;5070305;28;20709;-72
2023/05/02 09:30:34;;;;;;;11.02;2.90;;;12.70;92.30;;;;;;5059220;28;20222;-75
2023/05/02 09:33:01;;;;;;;6.32;2.85;;;13.10;92.00;;;;;;5049799;28;20839;-74
2023/05/02 09:35:28;;;;;;;4.07;2.50;;;14.30;90.00;;;;;;5050719;28;20204;-73
2023/05/02 09:37:56;;;;;;;6.53;2.50;;;14.80;86.80;;;;;;5052158;28;20302;-76
2023/05/02 09:40:26;;;;;;;7.03;2.88;;;14.60;83.90;;;;;;5054941;28;20311;-75
2023/05/02 09:42:53;;;;;;;6.25;3.00;;;14.50;85.20;;;;;;5059536;28;20302;-75
2023/05/02 09:45:21;;;;;;;6.90;2.42;;;14.60;85.40;;;;;;5050812;28;20303;-74
2023/05/02 09:47:49;;;;;;;7.72;2.90;;;14.40;84.50;;;;;;5051786;28;20215;-73
2023/05/02 09:50:35;;;;;;;5.50;2.53;;;14.20;84.70;;;;;;5048716;28;20223;-75
2023/05/02 09:53:05;;;;;;;3.70;2.17;;;14.50;85.70;;;;;;5046147;28;20291;-75
2023/05/02 09:55:33;;;;;;;3.67;1.92;;;15.70;83.00;;;;;;5050212;28;20211;-73
2023/05/02 09:58:01;;;;;;;5.63;2.03;;;16.10;80.40;;;;;;5049687;28;20209;-73
2023/05/02 10:00:42;;;;;;;5.63;2.80;;;16.00;80.60;;;;;;5053894;28;20228;-75
2023/05/02 10:03:10;;;;;;;5.40;3.05;;;15.80;80.20;;;;;;5052060;28;20206;-75
2023/05/02 10:05:38;;;;;;;6.55;2.50;;;15.30;81.10;;;;;;5050219;28;20210;-72
2023/05/02 10:08:06;;;;;;;2.85;1.85;;;14.80;81.40;;;;;;5049804;28;20663;-72
2023/05/02 10:10:37;;;;;;;5.07;1.98;;;14.60;81.60;;;;;;5053389;28;20325;-74
2023/05/02 10:13:05;;;;;;;5.22;2.15;;;14.30;81.80;;;;;;5049804;28;20270;-75
2023/05/02 10:15:34;;;;;;;4.38;2.15;;;14.00;82.70;;;;;;5050667;28;20214;-73
2023/05/02 10:18:06;;;;;;;5.72;2.70;;;13.70;84.00;;;;;;5049283;28;20287;-73
2023/05/02 10:20:37;;;;;;;5.80;2.55;;;13.90;85.40;;;;;;5050441;28;20250;-75
2023/05/02 10:23:05;;;;;;;4.50;1.95;;;14.00;85.90;;;;;;5047824;28;20262;-75
2023/05/02 10:25:34;;;;;;;5.63;2.17;;;14.00;86.30;;;;;;5048572;28;20214;-75
2023/05/02 10:28:02;;;;;;;3.65;2.15;;;13.90;86.80;;;;;;5048895;28;20208;-73
2023/05/02 10:30:30;;;;;;;9.65;3.13;;;14.00;87.50;;;;;;5047156;28;20307;-73
2023/05/02 10:33:00;;;;;;;5.43;2.10;;;14.30;86.30;;;;;;5044234;28;20211;-76
2023/05/02 10:35:27;;;;;;;4.47;2.90;;;14.50;86.90;;;;;;5036082;28;20207;-74
2023/05/02 10:37:55;;;;;;;5.18;3.13;;;14.90;87.00;;;;;;5039431;28;20208;-75
2023/05/02 10:40:21;;;;;;;3.65;2.20;;;14.80;86.10;;;;;;5039454;28;20702;-74
2023/05/02 10:42:51;;;;;;;3.55;2.55;;;14.60;87.00;;;;;;5037410;28;20197;-73
2023/05/02 10:45:35;;;;;;;4.53;1.92;;;14.30;87.20;;;;;;5040507;28;20231;-73
2023/05/02 10:48:21;;;;;;;8.07;1.77;;;13.70;89.30;;;;;;5044657;28;20207;-74
2023/05/02 10:50:50;;;;;;;8.07;2.33;;;13.40;90.50;;;;;;5033337;28;20196;-72
2023/05/02 10:53:31;;;;;;;8.18;2.58;;;13.10;91.50;;;;;;5041532;28;20215;-74
2023/05/02 10:56:26;;;;;;;6.20;2.33;;;12.90;92.40;;;;;;5032335;28;20224;-73
2023/05/02 10:59:14;;;;;;;3.10;1.70;;;12.80;93.00;;;;;;5035875;28;20255;-76
2023/05/02 11:01:41;;;;;;;2.28;1.70;;;12.60;92.70;;;;;;5036698;28;20205;-72
2023/05/02 11:04:09;;;;;;;3.95;1.83;;;12.60;92.80;;;;;;5034961;28;20298;-72
2023/05/02 11:06:57;;;;;;;5.85;2.05;;;12.80;92.60;;;;;;5034306;28;20200;-72
2023/05/02 11:09:33;;;;;;;6.35;2.05;;;12.90;92.30;;;;;;5030134;28;20227;-74
2023/05/02 11:12:00;;;;;;;3.97;2.10;;;13.20;92.20;;;;;;5040884;28;20314;-74
2023/05/02 11:14:43;;;;;;;5.07;2.25;;;13.30;91.40;;;;;;5040438;28;20577;-73
2023/05/02 11:17:11;;;;;;;4.22;1.60;;;13.50;91.30;;;;;;5035928;28;20204;-72
2023/05/02 11:20:19;;;;;;;3.03;1.90;;;13.80;90.80;;;;;;5034417;28;20307;-72
2023/05/02 11:22:47;;;;;;;4.10;2.38;;;13.70;90.70;;;;;;5037979;28;20216;-74
2023/05/02 11:25:34;;;;;;;2.65;1.60;;;13.50;90.80;;;;;;5035070;28;20205;-75
2023/05/02 11:28:01;;;;;;;8.75;2.03;;;13.30;91.30;;;;;;5034152;28;20231;-76
2023/05/02 11:30:39;;;;;;;10.13;2.40;;;13.20;91.50;;;;;;5035447;28;20224;-73
2023/05/02 11:33:17;;;;;;;5.97;2.22;;;12.90;91.80;;;;;;5040747;28;20679;-76
2023/05/02 11:35:45;;;;;;;8.05;2.10;;;12.60;92.50;;;;;;5038991;28;20565;-75
2023/05/02 11:38:14;;;;;;;8.77;2.75;;;12.40;93.10;;;;;;5032756;28;20214;-73
2023/05/02 11:40:53;;;;;;;5.38;2.33;;;12.30;94.00;;;;;;5039678;28;20236;-75
2023/05/02 11:43:21;;;;;;;5.93;3.03;;;12.30;94.60;;;;;;5039693;28;20201;-73
2023/05/02 11:45:48;;;;;;;9.15;2.03;;;12.20;94.80;;;;;;5033972;28;20211;-73
2023/05/02 11:48:18;;;;;;;7.00;3.28;;;12.10;94.60;;;;;;5034803;28;20207;-77
2023/05/02 11:50:47;;;;;;;6.68;2.15;;;12.00;94.70;;;;;;5034142;28;20211;-73
2023/05/02 11:53:15;;;;;;;12.25;2.22;;;12.30;94.50;;;;;;5032818;28;20221;-74
2023/05/02 11:55:48;;;;;;;3.67;2.00;;;12.70;93.70;;;;;;5034056;28;20753;-77
2023/05/02 11:58:16;;;;;;;3.45;2.25;;;13.10;92.60;;;;;;5036415;28;20239;-73
2023/05/02 12:00:46;;;;;;;6.35;2.15;;;13.30;92.20;;;;;;5031863;28;20231;-74
2023/05/02 12:03:21;;;;;;;6.68;1.88;;;13.50;91.80;;;;;;5036219;28;20196;-73
2023/05/02 12:05:48;;;;;;;2.92;1.88;;;13.70;91.70;;;;;;5034446;28;20196;-73
2023/05/02 12:08:19;;;;;;;5.97;2.80;;;13.90;91.20;;;;;;5035555;28;20230;-73
2023/05/02 12:10:48;;;;;;;5.55;1.75;;;13.90;89.40;;;;;;5033787;28;20230;-75
2023/05/02 12:13:15;;;;;;;9.80;2.60;;;14.10;90.50;;;;;;5027908;28;20664;-73
2023/05/02 12:15:42;;;;;;;4.63;1.80;;;14.50;90.00;;;;;;5034378;28;20208;-74
2023/05/02 12:18:09;;;;;;;5.68;1.80;;;14.80;89.30;;;;;;5033551;28;20204;-74
2023/05/02 12:20:37;;;;;;;6.07;2.55;;;14.90;89.00;;;;;;5033660;28;20225;-74
2023/05/02 12:23:06;;;;;;;4.35;1.95;;;15.20;88.30;;;;;;5035835;28;20293;-76
2023/05/02 12:25:37;;;;;;;5.93;1.92;;;15.50;87.70;;;;;;5033093;28;20196;-72
2023/05/02 12:28:07;;;;;;;6.05;3.28;;;15.70;87.40;;;;;;5035118;28;20506;-73
2023/05/02 12:30:37;;;;;;;10.80;2.63;;;15.70;85.70;;;;;;5028846;28;20691;-73
2023/05/02 12:33:05;;;;;;;8.60;2.20;;;15.40;86.60;;;;;;5032894;28;20971;-72
2023/05/02 12:35:33;;;;;;;7.10;2.90;;;15.30;87.40;;;;;;5033396;28;20579;-75
2023/05/02 12:38:11;;;;;;;8.52;2.63;;;15.40;87.30;;;;;;5037814;28;20204;-72
2023/05/02 12:40:39;;;;;;;4.78;2.33;;;15.40;87.60;;;;;;5032546;28;20281;-74
2023/05/02 12:43:09;;;;;;;6.72;2.85;;;15.40;87.10;;;;;;5035966;28;20224;-74
2023/05/02 12:45:37;;;;;;;7.30;2.40;;;15.20;86.50;;;;;;5035695;28;20197;-76
2023/05/02 12:48:22;;;;;;;3.95;1.38;;;14.90;85.80;;;;;;5034270;28;20208;-73
2023/05/02 12:50:49;;;;;;;6.55;2.17;;;14.40;87.10;;;;;;5040663;28;20200;-76
2023/05/02 12:53:17;;;;;;;13.38;3.05;;;13.90;88.50;;;;;;5032842;28;20662;-73
2023/05/02 12:55:45;;;;;;;6.60;3.10;;;13.70;90.10;;;;;;5032198;28;20201;-73
2023/05/02 12:58:14;;;;;;;5.18;1.73;;;13.50;90.30;;;;;;5033174;28;20231;-74
2023/05/02 13:00:42;;;;;;;4.57;2.15;;;13.60;90.40;;;;;;5032988;28;20303;-74
2023/05/02 13:03:10;;;;;;;3.95;1.90;;;13.50;89.80;;;;;;5033382;28;20659;-73
2023/05/02 13:05:37;;;;;;;4.97;2.70;;;13.60;89.80;;;;;;5032953;28;20625;-71
2023/05/02 13:08:04;;;;;;;11.80;2.33;;;13.80;90.10;;;;;;5033085;28;20295;-76
2023/05/02 13:10:32;;;;;;;3.78;1.65;;;14.00;90.10;;;;;;5033431;28;20223;-74
2023/05/02 13:13:00;;;;;;;5.93;2.20;;;14.20;90.00;;;;;;5033525;28;20319;-72
2023/05/02 13:15:28;;;;;;;8.48;1.85;;;14.10;90.20;;;;;;5032512;28;20204;-71
2023/05/02 13:17:55;;;;;;;2.83;2.22;;;13.70;91.00;;;;;;5032383;28;20250;-75
2023/05/02 13:20:22;;;;;;;2.38;1.77;;;13.50;91.10;;;;;;5032417;28;20317;-74
2023/05/02 13:22:49;;;;;;;7.05;1.80;;;13.40;91.70;;;;;;5033006;28;20215;-76
2023/05/02 13:25:17;;;;;;;9.30;2.05;;;13.50;91.60;;;;;;5032959;28;20222;-77
2023/05/02 13:27:44;;;;;;;3.10;1.70;;;13.50;91.20;;;;;;5032717;28;20564;-72
2023/05/02 13:30:12;;;;;;;5.13;2.13;;;13.50;90.60;;;;;;5035963;28;20251;-71
2023/05/02 13:32:40;;;;;;;4.40;2.17;;;13.40;90.60;;;;;;5033866;28;20258;-75
2023/05/02 13:35:08;;;;;;;4.47;1.52;;;13.50;90.60;;;;;;5032766;28;20310;-73
2023/05/02 13:37:37;;;;;;;7.20;2.20;;;13.50;91.00;;;;;;5030941;28;20192;-75
2023/05/02 13:40:05;;;;;;;6.57;2.20;;;13.40;90.70;;;;;;5031846;28;20227;-78
2023/05/02 13:42:32;;;;;;;5.38;1.85;;;13.40;91.10;;;;;;5028457;28;20207;-76
2023/05/02 13:45:01;;;;;;;3.55;1.88;;;13.40;91.10;;;;;;5031427;28;20261;-74
2023/05/02 13:47:28;;;;;;;7.18;2.45;;;13.40;91.00;;;;;;5033899;28;20201;-74
2023/05/02 13:49:57;;;;;;;4.80;1.77;;;13.30;90.80;;;;;;5033096;28;20226;-73
2023/05/02 13:52:25;;;;;;;3.58;1.75;;;13.20;90.60;;;;;;5032207;28;20518;-73
2023/05/02 13:54:51;;;;;;;3.42;2.08;;;13.30;90.30;;;;;;5036217;28;20656;-74
2023/05/02 13:57:24;;;;;;;2.85;1.50;;;13.30;90.60;;;;;;5035221;28;20285;-76
2023/05/02 13:59:51;;;;;;;2.45;1.90;;;13.60;90.60;;;;;;5032838;28;20232;-72
2023/05/02 14:02:18;;;;;;;7.63;2.10;;;13.80;90.00;;;;;;5032875;28;20224;-76
2023/05/02 14:04:45;;;;;;;9.82;2.28;;;13.90;89.30;;;;;;5040601;28;20199;-74
2023/05/02 14:07:13;;;;;;;2.95;1.80;;;13.70;89.80;;;;;;5032893;28;20296;-74
2023/05/02 14:09:40;;;;;;;5.53;2.20;;;13.80;90.10;;;;;;5035673;28;20250;-73
2023/05/02 14:12:09;;;;;;;4.63;2.50;;;13.70;90.50;;;;;;5036408;28;20218;-75
2023/05/02 14:14:37;;;;;;;8.30;3.33;;;13.70;90.50;;;;;;5039595;28;20279;-74
2023/05/02 14:17:04;;;;;;;7.45;2.00;;;13.60;90.80;;;;;;5039866;28;20687;-73
2023/05/02 14:19:31;;;;;;;5.82;1.50;;;13.30;90.70;;;;;;5037017;28;20285;-73
2023/05/02 14:21:58;;;;;;;5.85;1.83;;;12.70;91.50;;;;;;5045458;28;20305;-75
2023/05/02 14:24:26;;;;;;;7.72;2.17;;;12.40;92.00;;;;;;5045740;28;20217;-74
2023/05/02 14:26:53;;;;;;;6.35;1.85;;;12.10;92.40;;;;;;5045614;28;20242;-75
2023/05/02 14:29:20;;;;;;;4.40;1.80;;;12.20;92.60;;;;;;5046787;28;20318;-74
2023/05/02 14:31:47;;;;;;;5.65;1.75;;;12.30;92.50;;;;;;5034239;28;20204;-73
2023/05/02 14:34:13;;;;;;;3.30;2.35;;;12.20;92.30;;;;;;5035752;28;20277;-75
2023/05/02 14:36:40;;;;;;;9.52;2.95;;;12.40;92.60;;;;;;5034751;28;20635;-76
2023/05/02 14:39:07;;;;;;;4.85;1.70;;;12.50;92.40;;;;;;5035175;28;20228;-74
2023/05/02 14:41:36;;;;;;;2.90;1.90;;;12.70;92.30;;;;;;5034501;28;20196;-74
2023/05/02 14:44:04;;;;;;;6.75;2.20;;;13.00;91.90;;;;;;5038257;28;20199;-72
2023/05/02 14:46:31;;;;;;;16.63;2.40;;;13.10;91.80;;;;;;5039049;28;20207;-75
2023/05/02 14:48:57;;;;;;;2.63;1.92;;;13.20;91.40;;;;;;5038361;28;20258;-73
2023/05/02 14:51:25;;;;;;;6.10;1.65;;;13.20;91.30;;;;;;5035091;28;20238;-73
2023/05/02 14:53:53;;;;;;;4.35;1.83;;;13.30;91.00;;;;;;5038781;28;20215;-75
2023/05/02 14:56:20;;;;;;;2.42;1.60;;;13.30;90.70;;;;;;5038112;28;20203;-76
2023/05/02 14:58:48;;;;;;;4.50;2.05;;;13.30;90.70;;;;;;5039512;28;20219;-73
2023/05/02 15:01:16;;;;;;;8.55;2.28;;;13.30;90.70;;;;;;5044256;28;20707;-73
2023/05/02 15:03:44;;;;;;;5.13;1.60;;;13.20;90.90;;;;;;5035354;28;20204;-74
2023/05/02 15:06:11;;;;;;;5.47;1.70;;;13.20;90.80;;;;;;5036417;28;20294;-75
2023/05/02 15:08:39;;;;;;;4.63;2.45;;;13.20;91.00;;;;;;5032080;28;20568;-72
2023/05/02 15:11:06;;;;;;;10.80;1.98;;;13.10;91.20;;;;;;5028457;28;20200;-74
2023/05/02 15:13:33;;;;;;;3.33;1.63;;;13.10;91.10;;;;;;5034343;28;20255;-73
2023/05/02 15:16:02;;;;;;;5.43;1.60;;;13.00;91.50;;;;;;5039437;28;20338;-75
2023/05/02 15:18:29;;;;;;;8.55;1.70;;;12.80;91.50;;;;;;5034429;28;20208;-73
2023/05/02 15:20:56;;;;;;;7.47;2.30;;;12.70;91.70;;;;;;5037811;28;20203;-76
2023/05/02 15:23:23;;;;;;;4.28;1.80;;;12.60;92.10;;;;;;5040957;28;20286;-72
2023/05/02 15:25:50;;;;;;;7.72;1.33;;;12.50;92.50;;;;;;5033781;28;20194;-73
2023/05/02 15:28:17;;;;;;;3.83;1.70;;;12.50;92.50;;;;;;5038256;28;20203;-75
2023/05/02 15:30:44;;;;;;;2.05;1.52;;;12.50;92.70;;;;;;5033691;28;20209;-72
2023/05/02 15:33:13;;;;;;;4.30;1.73;;;12.40;92.40;;;;;;5028660;28;20222;-73
2023/05/02 15:35:39;;;;;;;7.88;2.80;;;12.40;92.40;;;;;;5037497;28;20219;-73
2023/05/02 15:38:07;;;;;;;3.63;1.92;;;12.30;92.30;;;;;;5040879;28;20294;-73
2023/05/02 15:40:34;;;;;;;3.58;1.85;;;12.30;92.60;;;;;;5034835;28;20237;-76
2023/05/02 15:43:01;;;;;;;6.47;2.38;;;12.30;92.50;;;;;;5037778;28;20574;-76
2023/05/02 15:45:32;;;;;;;2.70;1.85;;;12.30;92.10;;;;;;5037071;28;20681;-75
2023/05/02 15:47:59;;;;;;;5.53;2.33;;;12.30;92.20;;;;;;5030705;28;20228;-74
2023/05/02 15:50:28;;;;;;;7.60;1.80;;;12.40;92.40;;;;;;5039306;28;20221;-76
2023/05/02 15:52:54;;;;;;;5.57;2.53;;;12.50;92.20;;;;;;5042612;28;20286;-73
2023/05/02 15:55:21;;;;;;;8.30;2.35;;;12.60;92.50;;;;;;5035644;28;20217;-75
2023/05/02 15:57:50;;;;;;;6.78;2.33;;;12.70;92.60;;;;;;5041066;28;20213;-73
2023/05/02 16:00:18;;;;;;;4.07;2.00;;;12.80;93.00;;;;;;5041887;28;21815;-74
2023/05/02 16:02:45;;;;;;;4.65;1.50;;;12.90;92.50;;;;;;5036620;28;20582;-74
2023/05/02 16:05:13;;;;;;;5.47;1.80;;;12.80;92.20;;;;;;5033736;28;20294;-72
2023/05/02 16:07:41;;;;;;;7.22;3.55;;;12.80;92.60;;;;;;5043865;28;20223;-74
2023/05/02 16:10:09;;;;;;;13.70;2.10;;;12.90;92.20;;;;;;5041813;28;20252;-76
2023/05/02 16:12:36;;;;;;;4.05;1.80;;;12.90;92.10;;;;;;5035924;28;20254;-74
2023/05/02 16:15:05;;;;;;;6.55;2.20;;;12.90;91.90;;;;;;5035299;28;20208;-73
2023/05/02 16:17:32;;;;;;;9.30;2.08;;;12.70;91.60;;;;;;5031828;28;20638;-70
2023/05/02 16:19:59;;;;;;;2.55;1.85;;;12.70;91.90;;;;;;5037823;28;20224;-77
2023/05/02 16:22:27;;;;;;;10.00;2.65;;;12.60;91.40;;;;;;5039333;28;20621;-70
2023/05/02 16:24:55;;;;;;;4.38;1.90;;;12.60;91.80;;;;;;5040234;28;20199;-71
2023/05/02 16:27:23;;;;;;;3.38;1.77;;;12.60;91.90;;;;;;5039734;28;20214;-75
2023/05/02 16:29:50;;;;;;;8.23;3.90;;;12.50;92.00;;;;;;5056485;28;20231;-71
2023/05/02 16:32:18;;;;;;;7.55;3.55;;;12.50;92.30;;;;;;5037685;28;20202;-74
2023/05/02 16:34:45;;;;;;;3.78;2.10;;;12.40;92.70;;;;;;5034249;28;20247;-74
2023/05/02 16:37:12;;;;;;;4.18;2.33;;;12.50;92.70;;;;;;5032423;28;20239;-74
2023/05/02 16:39:39;;;;;;;6.22;2.30;;;12.50;92.80;;;;;;5032559;28;20220;-75
2023/05/02 16:42:07;;;;;;;4.97;2.15;;;12.40;92.70;;;;;;5042849;28;20322;-72
2023/05/02 16:44:34;;;;;;;5.35;2.15;;;12.50;92.90;;;;;;5033947;28;20241;-73
2023/05/02 16:47:01;;;;;;;12.93;2.10;;;12.60;92.70;;;;;;5033985;28;20196;-73
2023/05/02 16:49:28;;;;;;;6.03;2.47;;;12.70;92.30;;;;;;5043425;28;20251;-72
2023/05/02 16:51:56;;;;;;;3.08;1.73;;;12.60;91.60;;;;;;5021591;28;20200;-73
2023/05/02 16:54:23;;;;;;;4.60;1.83;;;12.50;91.60;;;;;;5033062;28;20711;-74
2023/05/02 16:56:54;;;;;;;8.27;2.17;;;12.30;91.50;;;;;;5034389;28;20211;-72
2023/05/02 16:59:22;;;;;;;6.38;2.00;;;12.00;91.80;;;;;;5034272;28;20318;-71
2023/05/02 17:01:50;;;;;;;6.03;3.22;;;11.80;92.20;;;;;;5033433;28;20286;-72
2023/05/02 17:04:17;;;;;;;6.00;2.28;;;11.70;92.30;;;;;;5047732;28;20193;-75
2023/05/02 17:06:46;;;;;;;10.70;2.90;;;11.60;92.50;;;;;;5034991;28;20207;-71
2023/05/02 17:09:13;;;;;;;4.10;1.70;;;11.50;92.60;;;;;;5032849;28;20226;-73
2023/05/02 17:11:40;;;;;;;2.67;1.63;;;11.50;92.60;;;;;;5032975;28;20235;-73
2023/05/02 17:14:07;;;;;;;4.15;2.08;;;11.40;92.70;;;;;;5042880;28;20306;-71
2023/05/02 17:16:37;;;;;;;5.32;1.95;;;11.30;92.90;;;;;;5047922;28;20226;-72
2023/05/02 17:19:05;;;;;;;1.70;1.40;;;11.30;93.40;;;;;;5033040;28;20228;-73
2023/05/02 17:21:32;;;;;;;4.60;2.03;;;11.30;93.40;;;;;;5033842;28;20222;-73
2023/05/02 17:23:59;;;;;;;2.92;1.95;;;11.20;93.40;;;;;;5032413;28;20197;-75
2023/05/02 17:26:26;;;;;;;2.47;1.58;;;11.30;93.60;;;;;;5040822;28;20542;-71
2023/05/02 17:28:53;;;;;;;7.00;1.80;;;11.40;93.50;;;;;;5045483;28;20331;-73
2023/05/02 17:31:21;;;;;;;3.50;2.33;;;11.50;93.40;;;;;;5042934;28;20675;-76
2023/05/02 17:33:51;;;;;;;3.58;2.13;;;11.50;93.30;;;;;;5048448;28;20222;-73
2023/05/02 17:36:17;;;;;;;3.08;1.55;;;11.60;93.20;;;;;;5034024;28;20245;-74
2023/05/02 17:38:46;;;;;;;6.55;1.98;;;11.60;93.20;;;;;;5043185;28;20232;-74
2023/05/02 17:41:13;;;;;;;3.08;1.50;;;11.50;93.30;;;;;;5037339;28;20664;-73
2023/05/02 17:43:42;;;;;;;4.40;2.28;;;11.60;93.40;;;;;;5040843;28;20203;-74
2023/05/02 17:46:10;;;;;;;3.90;1.60;;;11.50;93.40;;;;;;5048799;28;20204;-74
2023/05/02 17:48:37;;;;;;;3.47;2.00;;;11.50;93.70;;;;;;5035537;28;20530;-74
2023/05/02 17:51:05;;;;;;;9.07;2.08;;;11.50;93.80;;;;;;5035167;28;20239;-74
2023/05/02 17:53:34;;;;;;;3.22;1.77;;;11.60;94.00;;;;;;5038102;28;20287;-75
2023/05/02 17:56:02;;;;;;;6.20;2.97;;;11.40;94.20;;;;;;5038656;28;20293;-75
2023/05/02 17:58:29;;;;;;;6.53;1.98;;;11.30;94.40;;;;;;5041667;28;20216;-73
2023/05/02 18:00:57;;;;;;;5.28;1.95;;;11.20;94.80;;;;;;5037313;28;20195;-75
2023/05/02 18:03:24;;;;;;;3.17;1.75;;;11.10;94.90;;;;;;5036552;28;20201;-74
2023/05/02 18:05:53;;;;;;;3.35;2.65;;;10.90;94.90;;;;;;5040410;28;20204;-76
2023/05/02 18:08:21;;;;;;;3.00;2.28;;;10.80;94.50;;;;;;5043990;28;20605;-73
2023/05/02 18:10:48;;;;;;;5.07;2.97;;;10.70;94.10;;;;;;5047503;28;20575;-72
2023/05/02 18:13:15;;;;;;;4.53;1.85;;;10.50;94.20;;;;;;5045535;28;20212;-71
2023/05/02 18:15:42;;;;;;;10.30;2.13;;;10.50;95.00;;;;;;5038760;28;20222;-74
2023/05/02 18:18:09;;;;;;;7.18;2.17;;;10.40;94.80;;;;;;5040149;28;20283;-71
2023/05/02 18:20:43;;;;;;;5.82;2.00;;;10.30;95.10;;;;;;5037905;28;20224;-73
2023/05/02 18:23:10;;;;;;;4.20;2.15;;;10.30;95.20;;;;;;5040430;28;20215;-71
2023/05/02 18:25:38;;;;;;;4.22;1.95;;;10.20;95.30;;;;;;5041431;28;20318;-73
2023/05/02 18:28:06;;;;;;;5.40;2.00;;;10.10;95.50;;;;;;5043085;28;20723;-73
2023/05/02 18:30:37;;;;;;;5.40;2.30;;;10.00;95.60;;;;;;5042176;28;20235;-75
2023/05/02 18:33:05;;;;;;;4.90;1.90;;;10.00;95.90;;;;;;5046271;28;20560;-74
2023/05/02 18:35:32;;;;;;;5.65;2.67;;;10.00;96.40;;;;;;5036123;28;20224;-77
2023/05/02 18:38:00;;;;;;;8.50;2.13;;;9.90;97.30;;;;;;5036074;28;20228;-72
2023/05/02 18:40:42;;;;;;;8.63;2.40;;;9.90;97.60;;;;;;5028595;28;20248;-76
2023/05/02 18:43:09;;;;;;;7.18;2.25;;;10.00;98.10;;;;;;5045187;28;20274;-78
2023/05/02 18:45:42;;;;;;;12.15;2.95;;;10.10;97.20;;;;;;5038335;28;20202;-74
2023/05/02 18:48:08;;;;;;;4.70;2.50;;;10.00;96.10;;;;;;5043368;28;20201;-73
2023/05/02 18:50:36;;;;;;;2.60;2.10;;;9.90;96.60;;;;;;5035309;28;20226;-73
2023/05/02 18:53:02;;;;;;;3.35;1.80;;;9.80;96.70;;;;;;5044519;28;20201;-76
2023/05/02 18:55:32;;;;;;;5.55;2.40;;;9.80;96.90;;;;;;5039408;28;20282;-72
2023/05/02 18:58:00;;;;;;;5.03;2.20;;;9.70;96.70;;;;;;5038221;28;20227;-76
2023/05/02 19:00:43;;;;;;;3.90;2.33;;;9.70;96.80;;;;;;5045047;28;20224;-72
2023/05/02 19:03:11;;;;;;;5.10;1.67;;;9.60;97.10;;;;;;5042212;28;20216;-69
2023/05/02 19:05:51;;;;;;;6.15;2.10;;;9.60;97.20;;;;;;5048714;28;20200;-74
2023/05/02 19:08:18;;;;;;;4.28;2.00;;;9.50;97.70;;;;;;5046870;28;20231;-72
2023/05/02 19:10:45;;;;;;;5.68;2.55;;;9.50;97.60;;;;;;5059433;28;20235;-71
2023/05/02 19:13:16;;;;;;;8.02;2.30;;;9.50;97.80;;;;;;5041635;28;20246;-75
2023/05/02 19:15:43;;;;;;;8.82;2.03;;;9.40;98.00;;;;;;5034275;28;20292;-75
2023/05/02 19:18:10;;;;;;;5.90;2.35;;;9.40;98.10;;;;;;5038943;28;20196;-74
2023/05/02 19:20:37;;;;;;;6.47;2.58;;;9.40;98.20;;;;;;5034145;28;20720;-74
2023/05/02 19:23:04;;;;;;;4.57;1.95;;;9.40;98.30;;;;;;5034097;28;20691;-72
2023/05/02 19:25:31;;;;;;;6.75;1.65;;;9.30;98.40;;;;;;5036365;28;20247;-74
2023/05/02 19:27:58;;;;;;;4.68;2.05;;;9.30;98.80;;;;;;5034178;28;20675;-72
2023/05/02 19:30:27;;;;;;;2.72;1.83;;;9.30;98.80;;;;;;5033761;28;20638;-73
2023/05/02 19:32:54;;;;;;;4.00;2.03;;;9.20;98.80;;;;;;5035796;28;20270;-72
2023/05/02 19:35:21;;;;;;;3.42;2.20;;;9.20;99.10;;;;;;5033533;28;20306;-72
2023/05/02 19:37:49;;;;;;;11.27;3.53;;;9.20;99.50;;;;;;5039573;28;20714;-73
2023/05/02 19:40:16;;;;;;;3.10;1.70;;;9.10;99.70;;;;;;5035532;28;20634;-73
2023/05/02 19:42:43;;;;;;;4.32;2.38;;;9.10;99.80;;;;;;5034469;28;20228;-73
2023/05/02 19:45:12;;;;;;;4.35;2.35;;;9.00;99.90;;;;;;5034526;28;20297;-74
2023/05/02 19:47:42;;;;;;;6.78;1.90;;;9.00;99.90;;;;;;5026084;28;20196;-75
2023/05/02 19:50:10;;;;;;;5.95;2.88;;;9.00;99.90;;;;;;5033776;28;20228;-73
2023/05/02 19:52:40;;;;;;;5.57;2.35;;;9.00;99.90;;;;;;5033594;28;20226;-75
2023/05/02 19:55:07;;;;;;;2.90;1.95;;;9.00;99.90;;;;;;5032322;28;20219;-72
2023/05/02 19:57:34;;;;;;;6.68;2.13;;;9.00;99.90;;;;;;5033746;28;20210;-72
2023/05/02 20:00:01;;;;;;;2.38;1.95;;;9.00;99.90;;;;;;5033666;28;20238;-74
2023/05/02 20:02:28;;;;;;;4.30;2.10;;;9.10;99.90;;;;;;5037216;28;20207;-73
2023/05/02 20:04:56;;;;;;;4.90;2.80;;;9.20;99.90;;;;;;5035229;28;20291;-74
2023/05/02 20:07:23;;;;;;;5.93;2.40;;;9.20;99.90;;;;;;5034480;28;20236;-74
2023/05/02 20:09:50;;;;;;;5.93;3.47;;;9.20;99.90;;;;;;5036603;28;20227;-75
2023/05/02 20:12:18;;;;;;;4.25;2.38;;;9.30;99.90;;;;;;5042066;28;20299;-74
2023/05/02 20:14:45;;;;;;;4.05;2.13;;;9.50;99.90;;;;;;5032492;28;20264;-72
2023/05/02 20:17:14;;;;;;;5.95;2.63;;;9.40;99.90;;;;;;5032879;28;20200;-74
2023/05/02 20:19:41;;;;;;;3.63;2.35;;;9.40;99.90;;;;;;5032029;28;20263;-76
2023/05/02 20:22:09;;;;;;;3.20;2.90;;;9.40;99.90;;;;;;5033580;28;20209;-74
2023/05/02 20:24:36;;;;;;;10.02;2.75;;;9.40;99.90;;;;;;5033363;28;20690;-74
2023/05/02 20:27:03;;;;;;;6.22;2.97;;;9.30;99.90;;;;;;5033039;28;20240;-73
2023/05/02 20:29:31;;;;;;;7.35;2.20;;;9.30;99.90;;;;;;5031810;28;20224;-72
2023/05/02 20:31:58;;;;;;;4.95;3.05;;;9.20;99.90;;;;;;5039222;28;20283;-72
2023/05/02 20:34:25;;;;;;;6.18;2.30;;;9.10;99.90;;;;;;5033920;28;20208;-75
2023/05/02 20:36:53;;;;;;;6.00;2.92;;;9.00;99.90;;;;;;5033042;28;20207;-74
2023/05/02 20:39:21;;;;;;;3.65;2.30;;;9.00;99.90;;;;;;5039718;28;20254;-76
2023/05/02 20:41:49;;;;;;;4.75;2.05;;;8.90;99.90;;;;;;5033566;28;20269;-74
2023/05/02 20:44:17;;;;;;;6.40;2.38;;;8.80;99.90;;;;;;5032911;28;20204;-74
2023/05/02 20:46:44;;;;;;;6.55;2.90;;;8.80;99.90;;;;;;5029050;28;20238;-73
2023/05/02 20:49:11;;;;;;;2.88;1.85;;;8.90;99.90;;;;;;5039501;28;20579;-72
2023/05/02 20:51:38;;;;;;;6.88;2.95;;;8.80;99.90;;;;;;5034388;28;20292;-74
2023/05/02 20:54:05;;;;;;;4.05;2.15;;;8.80;99.90;;;;;;5035093;28;20291;-73
2023/05/02 20:56:34;;;;;;;6.07;2.88;;;8.80;99.90;;;;;;5036673;28;20235;-74
2023/05/02 20:59:01;;;;;;;5.43;3.13;;;8.80;99.90;;;;;;5032536;28;20232;-74
2023/05/02 21:01:29;;;;;;;14.70;2.70;;;8.70;99.90;;;;;;5032058;28;20265;-74
2023/05/02 21:03:56;;;;;;;4.40;3.20;;;8.70;99.90;;;;;;5031783;28;20205;-76
2023/05/02 21:06:23;;;;;;;4.55;2.80;;;8.70;99.90;;;;;;5032918;28;20585;-72
2023/05/02 21:08:50;;;;;;;5.95;3.55;;;8.70;99.90;;;;;;5032956;28;20258;-71
2023/05/02 21:11:18;;;;;;;3.75;2.88;;;8.70;99.90;;;;;;5034941;28;20242;-71
2023/05/02 21:13:46;;;;;;;4.18;2.30;;;8.70;99.90;;;;;;5032511;28;20730;-75
2023/05/02 21:16:14;;;;;;;7.43;3.00;;;8.70;99.90;;;;;;5033750;28;20236;-74
2023/05/02 21:18:41;;;;;;;5.32;2.50;;;8.60;99.90;;;;;;5032476;28;20653;-74
2023/05/02 21:21:08;;;;;;;7.20;3.10;;;8.60;99.90;;;;;;5032604;28;20311;-73
2023/05/02 21:23:35;;;;;;;4.85;2.47;;;8.60;99.90;;;;;;5032284;28;20200;-71
2023/05/02 21:26:02;;;;;;;2.95;2.10;;;8.50;99.90;;;;;;5032651;28;20283;-71
2023/05/02 21:28:29;;;;;;;4.50;2.97;;;8.50;99.90;;;;;;5032637;28;20212;-74
2023/05/02 21:30:58;;;;;;;4.93;3.00;;;8.50;99.90;;;;;;5031388;28;20215;-71
2023/05/02 21:33:25;;;;;;;5.43;2.50;;;8.40;99.90;;;;;;5033344;28;20201;-73
2023/05/02 21:35:56;;;;;;;4.03;2.47;;;8.40;99.90;;;;;;5032728;28;20218;-70
2023/05/02 21:38:23;;;;;;;5.60;2.35;;;8.40;99.90;;;;;;5035125;28;20196;-73
2023/05/02 21:40:50;;;;;;;3.35;3.00;;;8.30;99.90;;;;;;5040783;28;20306;-70
2023/05/02 21:43:17;;;;;;;5.53;2.75;;;8.30;99.90;;;;;;5034412;28;20287;-70
2023/05/02 21:45:45;;;;;;;8.23;2.42;;;8.20;99.90;;;;;;5041951;28;20188;-72
2023/05/02 21:48:14;;;;;;;5.80;2.58;;;8.20;99.90;;;;;;5048080;28;20204;-73
2023/05/02 21:50:41;;;;;;;8.02;2.63;;;8.20;99.90;;;;;;5036685;28;20231;-72
2023/05/02 21:53:08;;;;;;;7.65;2.78;;;8.20;99.90;;;;;;5031183;28;20200;-72
2023/05/02 21:55:36;;;;;;;6.57;2.70;;;8.20;99.90;;;;;;5032893;28;20227;-71
2023/05/02 21:58:03;;;;;;;7.75;3.15;;;8.20;99.90;;;;;;5032096;28;20206;-74
2023/05/02 22:00:32;;;;;;;5.03;3.03;;;8.10;99.90;;;;;;5034132;28;20231;-73
2023/05/02 22:03:00;;;;;;;6.53;3.13;;;8.00;99.90;;;;;;5033454;28;20270;-74
2023/05/02 22:05:32;;;;;;;3.90;2.90;;;8.10;99.90;;;;;;5032438;28;20199;-71
2023/05/02 22:08:00;;;;;;;6.47;3.28;;;8.00;99.90;;;;;;5024361;28;20298;-75
2023/05/02 22:10:28;;;;;;;8.32;3.20;;;7.90;99.90;;;;;;5031858;28;20228;-73
2023/05/02 22:12:56;;;;;;;5.43;3.58;;;7.90;99.90;;;;;;5032239;28;20204;-72
2023/05/02 22:15:23;;;;;;;7.82;3.75;;;7.90;99.90;;;;;;5032995;28;20237;-69
2023/05/02 22:17:50;;;;;;;4.07;3.40;;;7.90;99.90;;;;;;5034655;28;20286;-71